Bodensee (Kressbronn): 5,6°C  -  Teich der Wetterzentrale Bad Schussenried: 4,4°C |  Schneehöhe Kreuzthal-Steinberg (930 m ü. NN): 25 cm   
28.02.2020Höhe
ü. NN
ZeitTemperatur (°C)Nieder-
schlag
Luft-
feuchte
Luft-
druck
Wind
StationaktuellMinimumMaximumaktuellMaximum
Aldingen654 m00:010,00,0 (06:25)0,0 (18:32)0,0 l/m²91%1013,314,8 km/h (3 Bft) W-NW72,2 km/h (8 Bft) NW (18:49)
Allmendingen541 m00:001,41,4 (06:20)1,4 (12:15)0,0 l/m²88%1009,027,4 km/h (4 Bft) W-NW64,4 km/h (8 Bft) W-NW (19:55)
Amstetten-Reutti663 m00:00-0,1-0,1 (05:10)-0,1 (11:50)0,2 l/m²96%1008,116,1 km/h (3 Bft) W80,5 km/h (9 Bft) W-SW (19:55)
Amtzell-Grenis677 m00:000,30,3 (00:00)0,3 (00:00)0,0 l/m²76%1012,932,2 km/h (5 Bft) W32,2 km/h (5 Bft) W (00:00)
Bad Krozingen233 m00:003,43,4 (01:20)3,4 (17:55)0,0 l/m²85%1015,510,4 km/h (2 Bft) W65,7 km/h (8 Bft) W-SW (17:45)
Bad Saulgau595 m00:000,60,6 (01:00)0,6 (19:20)0,0 l/m²91%1009,820,9 km/h (4 Bft) O-NO57,9 km/h (7 Bft) O-NO (20:00)
Bad Saulgau, SFZ Kälberweide594 m00:031,01,0 (00:00)1,0 (00:00)0,0 l/m²91%1012,224,1 km/h (4 Bft) W-NW24,1 km/h (4 Bft) N (00:00)
Bad Saulgau-Lampertsweiler627 m00:000,40,4 (00:00)0,4 (00:00)0,0 l/m²87%1013,219,3 km/h (3 Bft) W19,3 km/h (3 Bft) W-SW (00:00)
Bad Schussenried572 m00:001,11,1 (00:00)1,1 (00:00)0,0 l/m²92%1008,919,3 km/h (3 Bft) W-NW19,3 km/h (3 Bft) NW (00:00)
Bergatreute615 m00:001,31,3 (00:00)1,3 (00:00)0,0 l/m²92%1010,517,7 km/h (3 Bft) W17,7 km/h (3 Bft) W-SW (00:00)
Biberach (Riss), Boehringer533 m00:101,41,2 (00:10)1,9 (00:00)0,4 l/m²86%1009,99,0 km/h (2 Bft) W-NW26,6 km/h (4 Bft) SW (00:00)
Biberach (Riss), Realschule553 m00:000,91,0 (00:00)1,0 (00:00)0,0 l/m²89%1011,029,0 km/h (5 Bft) NW29,0 km/h (5 Bft) W (00:00)
Burgrieden-Hochstetten510 m00:001,21,2 (05:35)1,2 (12:45)0,0 l/m²89%1009,532,2 km/h (5 Bft) W64,4 km/h (8 Bft) W (20:40)
Ebersbach579 m00:000,90,9 (00:00)0,9 (00:00)0,0 l/m²93%1011,611,3 km/h (2 Bft) W11,3 km/h (2 Bft) W (00:00)
Ebersbach-Boos605 m00:000,60,6 (00:00)0,6 (00:00)0,0 l/m²93%1011,320,9 km/h (4 Bft) W20,9 km/h (4 Bft) W (00:00)
Ebersbach-Menzenweiler661 m00:000,20,2 (00:00)0,2 (00:00)0,0 l/m²95%1011,330,6 km/h (5 Bft) SW30,6 km/h (5 Bft) W-SW (00:00)
Ehingen535 m00:001,01,0 (00:00)1,0 (00:00)0,0 l/m²83%1006,216,3 km/h (3 Bft) S16,3 km/h (3 Bft) S (00:00)
Ertingen569 m00:000,80,8 (00:00)0,8 (00:00)0,0 l/m²90%1010,86,4 km/h (2 Bft) S-SW6,4 km/h (2 Bft) S-SO (00:00)
Hochdorf-Appendorf537 m00:000,90,9 (00:00)0,9 (00:00)0,0 l/m²68%1010,024,1 km/h (4 Bft) S-SW24,1 km/h (4 Bft) S-SO (00:00)
Höchsten802 m00:00-1,0-1,0 (00:00)-1,0 (00:00)0,0 l/m²94%1009,525,7 km/h (4 Bft) SW25,7 km/h (4 Bft) S-SW (00:00)
Horgenzell618 m00:000,10,1 (00:00)0,1 (00:00)0,0 l/m²94%1010,430,6 km/h (5 Bft) N-NO30,6 km/h (5 Bft) N (00:00)
Hoßkirch632 m00:000,30,3 (00:00)0,3 (00:00)0,0 l/m²93%1010,030,6 km/h (5 Bft) SW30,6 km/h (5 Bft) SW (00:00)
Isny, Am Dreifingerbach695 m00:000,90,9 (00:00)0,9 (00:00)0,0 l/m²95%1010,320,9 km/h (4 Bft) W-SW20,9 km/h (4 Bft) NW (00:00)
Isny, Weidachweg706 m00:000,20,3 (00:00)0,3 (00:00)0,2 l/m²89%1012,541,8 km/h (6 Bft) W-NW41,8 km/h (6 Bft) W-NW (00:00)
Kißlegg-Staibshof709 m00:000,30,3 (00:00)0,3 (00:00)0,0 l/m²94%1011,132,2 km/h (5 Bft) SW32,2 km/h (5 Bft) W-SW (00:00)
Kressbronn398 m00:003,43,4 (00:00)3,4 (00:00)0,0 l/m²80%1010,733,8 km/h (5 Bft) W33,8 km/h (5 Bft) W (00:00)
Kreuzthal-Steinberg-Alpe930 m00:00-1,4-1,5 (00:00)-1,2 (00:00)0,0 l/m²100%1013,013,0 km/h (3 Bft) W38,9 km/h (6 Bft) W-NW (00:00)
Kreuzthal-Steinberggipfel1040 m00:00-2,1-2,2 (00:00)-2,0 (00:00)-100%1013,016,2 km/h (3 Bft) W-SW46,8 km/h (6 Bft) N (00:00)
Kristberg im Montafon (AT)1425 m00:02-4,2-4,2 (00:00)-4,1 (00:00)0,0 l/m²93%1015,132,4 km/h (5 Bft) N-NW18,7 km/h (3 Bft) N (00:00)
Laupheim500 m00:001,11,1 (00:00)1,1 (00:00)0,0 l/m²85%1008,837,0 km/h (5 Bft) W-NW37,0 km/h (5 Bft) W (00:00)
Leutkirch-Heggelbach670 m00:000,30,3 (00:00)0,3 (00:00)0,0 l/m²92%1009,827,4 km/h (4 Bft) W-SW27,4 km/h (4 Bft) SW (00:00)
Lindau-Insel420 m00:003,93,9 (08:35)3,9 (19:25)0,0 l/m²80%1011,329,0 km/h (5 Bft) W-NW82,1 km/h (9 Bft) W (20:05)
Lindau-Stadt412 m00:003,63,6 (08:25)3,6 (19:30)0,0 l/m²84%1011,533,8 km/h (5 Bft) SW62,8 km/h (8 Bft) W (19:35)
Maierhöfen im Allgäu733 m00:000,40,4 (00:00)0,4 (00:00)0,0 l/m²95%1010,727,4 km/h (4 Bft) W27,4 km/h (4 Bft) W (00:00)
Maselheim543 m00:000,80,8 (06:10)0,8 (19:40)0,0 l/m²87%1009,735,4 km/h (5 Bft) W-NW69,2 km/h (8 Bft) W-NW (20:45)
Maselheim-Sulmingen548 m00:000,90,9 (04:35)0,9 (12:45)0,0 l/m²86%1010,633,8 km/h (5 Bft) W-SW72,4 km/h (8 Bft) W-SW (20:00)
Mietingen-Baltringen528 m00:001,31,4 (00:00)1,4 (00:00)0,0 l/m²82%1011,330,6 km/h (5 Bft) W-NW30,6 km/h (5 Bft) NW (00:00)
Mindelheim-Apfeltrach620 m00:010,20,2 (00:00)0,2 (00:00)0,0 l/m²90%1010,016,1 km/h (3 Bft) W16,1 km/h (3 Bft) W (00:01)
Mittelbiberach577 m00:030,5-0,7 (04:12)3,5 (19:56)6,2 l/m²87%1011,322,5 km/h (4 Bft) NW88,5 km/h (10 Bft) W (20:10)
Neukirch570 m00:001,91,9 (01:00)1,9 (19:25)0,0 l/m²91%1011,437,0 km/h (5 Bft) SW72,4 km/h (8 Bft) W-SW (20:05)
Ochsenhausen, Birkenstraße613 m00:001,11,1 (04:20)1,1 (13:25)0,0 l/m²83%1010,20,0 km/h (0 Bft) W1,6 km/h (1 Bft) O (17:20)
Ochsenhausen, Unt. Wiesen575 m00:000,91,0 (00:00)1,0 (00:00)0,0 l/m²87%1011,332,2 km/h (5 Bft) W32,2 km/h (5 Bft) W (00:00)
Opfenbach-Göritz561 m00:031,31,3 (00:00)1,3 (00:00)0,0 l/m²88%1009,717,6 km/h (3 Bft) S-SO17,6 km/h (3 Bft) N (00:00)
Ostrach619 m00:001,41,4 (00:00)1,4 (00:00)0,0 l/m²93%1009,720,9 km/h (4 Bft) SW20,9 km/h (4 Bft) W-SW (00:00)
Ravensburg, Goethestraße428 m00:002,42,4 (00:00)2,4 (00:00)0,0 l/m²90%1010,822,5 km/h (4 Bft) W22,5 km/h (4 Bft) W-SW (00:00)
Ravensburg-Wernsreute511 m00:001,51,5 (07:00)1,5 (19:50)0,0 l/m²92%1014,135,4 km/h (5 Bft) W64,4 km/h (8 Bft) SW (19:00)
Reichenbach an der Fils343 m00:001,21,2 (00:00)1,2 (00:00)0,0 l/m²87%1011,425,7 km/h (4 Bft) NW25,7 km/h (4 Bft) N-NW (00:00)
Reinstetten559 m00:000,91,0 (00:00)1,0 (00:00)0,0 l/m²90%1010,233,8 km/h (5 Bft) SW33,8 km/h (5 Bft) SW (00:00)
Riedlingen530 m00:000,70,7 (00:00)0,7 (00:00)0,0 l/m²91%1010,70,0 km/h (0 Bft) W0,0 km/h (0 Bft) SW (00:00)
Rottweil-Hausen681 m00:00-0,40,0 (01:00)-0,4 (01:00)0,0 l/m²90%1013,437,1 km/h (5 Bft) W-NW28,8 km/h (5 Bft) N (01:00)
Schemmerhofen520 m00:001,81,9 (00:00)1,9 (00:00)0,0 l/m²84%1009,340,2 km/h (6 Bft) W40,2 km/h (6 Bft) W (00:00)
Silbertal im Montafon (AT)884 m00:011,30,0 (01:00)0,0 (01:00)0,0 l/m²87%1014,025,6 km/h (4 Bft) W15,5 km/h (3 Bft) N (00:00)
Tettnang466 m00:012,60,0 (01:00)2,6 (01:00)0,0 l/m²87%1011,433,8 km/h (5 Bft) W25,9 km/h (4 Bft) N (01:00)
Tuttlingen, Möhringer-Vorstadt711 m00:00-0,4-0,4 (01:20)-0,4 (19:00)0,0 l/m²93%1012,724,1 km/h (4 Bft) W-NW59,5 km/h (7 Bft) W (19:50)
Ummendorf547 m00:000,80,9 (00:00)0,9 (00:00)0,0 l/m²73%1011,035,4 km/h (5 Bft) W35,4 km/h (5 Bft) W (00:00)
Ummendorf-Fischbach558 m00:000,80,8 (00:00)0,8 (00:00)0,0 l/m²74%1011,319,3 km/h (3 Bft) S-SW19,3 km/h (3 Bft) S-SW (00:00)
Waldburg707 m00:000,40,4 (00:00)0,4 (00:00)0,0 l/m²95%1010,820,9 km/h (4 Bft) N20,9 km/h (4 Bft) N (00:00)
Wangen, Südring548 m00:031,81,8 (00:00)1,8 (00:00)0,0 l/m²90%1010,928,8 km/h (5 Bft) W28,8 km/h (5 Bft) W-NW (00:02)
Weingarten500 m00:001,81,8 (00:00)1,8 (00:00)0,0 l/m²89%1011,024,1 km/h (4 Bft) W-SW24,1 km/h (4 Bft) W (00:00)

niederschlagsdatenbank | info | login - erfassung

Sollten Sie Interesse haben, an der Niederschlagsdatenbank teilzunehmen, finden Sie > hier < weitere Informationen.
Datum: . . Kalender
Anmerkung:0,0  = nicht messbarer Niederschlag
k    = kumulierter Niederschlag

< 09.06.201911.06.2019 >


Kartografische Darstellung der Tagesniederschläge vom 10.06.2019    -    derzeit 112 Stationen

Niederschlagsmengen Legende:

Legende
Liter / m²

< 09.06.201911.06.2019 >

 
wetterstationen
wetterstationen
- derzeit 82 Stationen
niederschlagsdatenbank
wetterstationen
- kartographische Darstellung
niederschlagsdatenbank
niederschlagsstationen
- derzeit 112 Stationen
niederschlagsdatenbank
niederschlagsstationen
- kartographische Darstellung
 
 
Do. 7.30 Uhr - Fr. 7.30 Uhr (MEZ)
1.Biberach
Mittelbergstraße 9
10,0 l/m²
2.Füramoos
Hungersberg 1
5,5 l/m²
 
  treffpunkt & service
--- Anzeigen --------------------------------
zugriffe:
insgesamt: 46.235.891
aktueller monat: 374.962
heute: 9
momentan online: 4
 
 
monatshöchstwert: 653.625
vorheriger monat: 349.489
gestern: 16.975
tageshöchstwert: 57.073
 
wetterwarte süd
 
konradstraße 3
info@wetterwarte-sued.com
roland roth
 
88427 bad schussenried